createdAt,value
2022-09-14T00:03:00.600Z,62.50
2022-09-14T00:08:03.908Z,62.50
2022-09-14T00:13:06.998Z,62.50
2022-09-14T00:18:12.381Z,63.10
2022-09-14T00:23:15.328Z,62.50
2022-09-14T00:28:18.578Z,62.40
2022-09-14T00:33:22.902Z,62.30
2022-09-14T00:38:27.705Z,62.40
2022-09-14T00:43:30.738Z,62.50
2022-09-14T00:48:35.049Z,62.40
2022-09-14T00:53:38.276Z,62.40
2022-09-14T00:58:41.505Z,62.40
2022-09-14T01:03:45.856Z,62.50
2022-09-14T01:09:19.098Z,62.40
2022-09-14T01:14:34.699Z,62.40
2022-09-14T01:19:55.884Z,62.20
2022-09-14T01:25:12.461Z,62.30
2022-09-14T01:30:21.582Z,62.30
2022-09-14T01:35:29.374Z,62.40
2022-09-14T01:40:35.838Z,63.00
2022-09-14T01:45:45.142Z,62.20
2022-09-14T01:50:51.771Z,62.10
2022-09-14T01:55:59.945Z,62.20
2022-09-14T02:01:07.086Z,62.20
2022-09-14T02:06:15.235Z,62.20
2022-09-14T02:11:18.237Z,62.10
2022-09-14T02:16:24.500Z,62.20
2022-09-14T02:21:30.330Z,62.80
2022-09-14T02:26:34.603Z,62.30
2022-09-14T02:31:47.974Z,62.10
2022-09-14T02:36:56.098Z,62.10
2022-09-14T02:42:09.411Z,62.10
2022-09-14T02:47:21.332Z,62.10
2022-09-14T02:52:32.124Z,62.10
2022-09-14T02:57:55.087Z,62.10
2022-09-14T03:02:59.861Z,62.10
2022-09-14T03:08:03.154Z,62.10
2022-09-14T03:13:06.247Z,62.10
2022-09-14T03:18:14.323Z,62.10
2022-09-14T03:23:17.621Z,62.10
2022-09-14T03:28:20.570Z,62.10
2022-09-14T03:33:24.862Z,62.10
2022-09-14T03:38:30.129Z,62.10
2022-09-14T03:43:33.293Z,62.10
2022-09-14T03:48:37.810Z,62.10
2022-09-14T03:53:41.277Z,62.10
2022-09-14T03:58:44.964Z,62.10
2022-09-14T04:03:50.327Z,62.20
2022-09-14T04:08:53.638Z,62.30
2022-09-14T04:13:56.572Z,63.10
2022-09-14T04:19:00.974Z,62.50
2022-09-14T04:24:14.495Z,62.50
2022-09-14T04:29:18.419Z,62.60
2022-09-14T04:34:22.729Z,62.60
2022-09-14T04:39:26.336Z,62.80
2022-09-14T04:44:29.395Z,62.70
2022-09-14T04:49:33.703Z,62.70
2022-09-14T04:54:36.669Z,62.70
2022-09-14T04:59:39.635Z,63.40
2022-09-14T05:04:44.247Z,62.70
2022-09-14T05:09:47.192Z,62.70
2022-09-14T05:14:50.147Z,62.70
2022-09-14T05:19:54.452Z,63.50
2022-09-14T05:24:57.406Z,63.90
2022-09-14T05:30:00.350Z,64.00
2022-09-14T05:35:05.028Z,64.20
2022-09-14T05:40:09.366Z,64.60
2022-09-14T05:45:12.556Z,64.10
2022-09-14T05:50:17.080Z,63.70
2022-09-14T05:55:20.118Z,64.70
2022-09-14T06:00:23.108Z,64.60
2022-09-14T06:05:28.255Z,65.10
2022-09-14T06:10:31.294Z,64.80
2022-09-14T06:15:35.092Z,65.30
2022-09-14T06:20:39.546Z,65.20
2022-09-14T06:25:42.568Z,65.70
2022-09-14T06:30:45.866Z,65.90
2022-09-14T06:36:01.081Z,65.70
2022-09-14T06:41:06.348Z,66.20
2022-09-14T06:46:12.267Z,66.50
2022-09-14T06:51:19.034Z,66.40
2022-09-14T06:56:22.608Z,66.80
2022-09-14T07:01:26.924Z,67.20
2022-09-14T07:06:33.230Z,66.40
2022-09-14T07:11:36.646Z,66.10
2022-09-14T07:16:40.961Z,65.90
2022-09-14T07:21:45.354Z,65.70
2022-09-14T07:26:48.346Z,65.40
2022-09-14T07:31:53.847Z,65.10
2022-09-14T07:36:58.135Z,64.90
2022-09-14T07:42:01.100Z,64.50
2022-09-14T07:47:04.222Z,64.20
2022-09-14T07:52:08.848Z,64.00
2022-09-14T07:57:11.875Z,63.90
2022-09-14T08:02:15.023Z,63.80
2022-09-14T08:07:19.771Z,63.70
2022-09-14T08:12:22.897Z,63.70
2022-09-14T08:17:25.865Z,63.60
2022-09-14T08:22:30.543Z,63.70
2022-09-14T08:27:33.714Z,63.50
2022-09-14T08:32:36.687Z,63.60
2022-09-14T08:37:41.014Z,63.60
2022-09-14T08:42:44.138Z,63.80
2022-09-14T08:47:47.355Z,63.80
2022-09-14T08:52:53.904Z,63.80
2022-09-14T08:58:04.328Z,63.90
2022-09-14T09:03:34.272Z,64.00
2022-09-14T09:08:45.265Z,64.30
2022-09-14T09:13:51.671Z,64.40
2022-09-14T09:18:59.891Z,64.20
2022-09-14T09:24:17.080Z,63.90
2022-09-14T09:29:20.248Z,63.60
2022-09-14T09:34:28.210Z,63.40
2022-09-14T09:39:32.920Z,63.30
2022-09-14T09:45:00.688Z,63.20
2022-09-14T09:50:16.974Z,63.00
2022-09-14T09:55:22.558Z,62.80
2022-09-14T10:00:29.641Z,62.70
2022-09-14T10:05:33.105Z,62.50
2022-09-14T10:10:44.929Z,62.40
2022-09-14T10:15:48.947Z,62.30
2022-09-14T10:21:08.629Z,62.20
2022-09-14T10:26:25.591Z,62.10
2022-09-14T10:31:34.125Z,62.00
2022-09-14T10:36:43.119Z,62.00
2022-09-14T10:41:57.687Z,61.90
2022-09-14T10:47:17.055Z,61.90
2022-09-14T10:52:27.335Z,61.80
2022-09-14T10:57:43.160Z,61.80
2022-09-14T11:02:58.417Z,61.80
2022-09-14T11:08:13.575Z,61.70
2022-09-14T11:13:34.666Z,61.80
2022-09-14T11:18:47.176Z,61.60
2022-09-14T11:23:54.567Z,61.70
2022-09-14T11:29:04.106Z,62.00
2022-09-14T11:34:19.011Z,61.70
2022-09-14T11:39:25.442Z,61.70
2022-09-14T11:44:34.709Z,61.70
2022-09-14T11:49:47.939Z,61.70
2022-09-14T11:54:52.364Z,61.70
2022-09-14T11:59:57.990Z,61.70
2022-09-14T12:05:44.496Z,61.60
2022-09-14T12:11:25.687Z,61.60
2022-09-14T12:16:34.408Z,61.60
2022-09-14T12:21:38.065Z,61.50
2022-09-14T12:26:41.153Z,62.20
2022-09-14T12:32:07.137Z,61.50
2022-09-14T12:37:30.282Z,61.50
2022-09-14T12:42:33.305Z,61.50
2022-09-14T12:47:55.611Z,61.40
2022-09-14T12:53:27.138Z,61.50
2022-09-14T12:58:59.955Z,61.40
2022-09-14T13:04:05.283Z,61.40
2022-09-14T13:09:16.956Z,61.40
2022-09-14T13:14:20.796Z,61.40
2022-09-14T13:19:27.419Z,61.30
2022-09-14T13:24:34.754Z,61.40
2022-09-14T13:29:37.844Z,62.10
2022-09-14T13:34:42.249Z,61.30
2022-09-14T13:39:51.858Z,61.40
2022-09-14T13:44:55.834Z,61.40
2022-09-14T13:50:00.508Z,61.40
2022-09-14T13:55:21.555Z,61.40
2022-09-14T14:00:24.618Z,61.40
2022-09-14T14:05:31.475Z,61.40
2022-09-14T14:10:36.739Z,61.40
2022-09-14T14:15:42.029Z,61.50
2022-09-14T14:20:46.376Z,61.40
2022-09-14T14:25:54.127Z,61.40
2022-09-14T14:30:59.495Z,61.50
2022-09-14T14:36:09.344Z,61.40
2022-09-14T14:41:16.621Z,61.40
2022-09-14T14:46:19.759Z,61.40
2022-09-14T14:51:24.190Z,61.40
2022-09-14T14:56:28.167Z,61.50
2022-09-14T15:01:31.211Z,62.30
2022-09-14T15:06:35.630Z,62.50
2022-09-14T15:11:40.526Z,62.40
2022-09-14T15:16:44.580Z,63.00
2022-09-14T15:21:49.000Z,62.20
2022-09-14T15:26:53.819Z,62.10
2022-09-14T15:31:56.917Z,62.10
2022-09-14T15:37:01.300Z,62.10
2022-09-14T15:42:04.394Z,62.20
2022-09-14T15:47:07.519Z,62.10
2022-09-14T15:52:12.484Z,62.20
2022-09-14T15:57:15.410Z,62.00
2022-09-14T16:02:20.315Z,61.80
2022-09-14T16:07:24.723Z,61.60
2022-09-14T16:12:27.876Z,61.60
2022-09-14T16:17:30.883Z,61.70
2022-09-14T16:22:35.294Z,61.70
2022-09-14T16:27:38.415Z,61.60
2022-09-14T16:32:41.367Z,61.50
2022-09-14T16:37:45.734Z,61.60
2022-09-14T16:42:48.778Z,61.60
2022-09-14T16:47:52.231Z,61.70
2022-09-14T16:52:56.530Z,62.00
2022-09-14T16:57:59.465Z,62.00
2022-09-14T17:03:02.419Z,62.10
2022-09-14T17:08:06.760Z,62.30
2022-09-14T17:13:09.722Z,62.60
2022-09-14T17:18:12.698Z,63.60
2022-09-14T17:23:17.014Z,62.90
2022-09-14T17:28:22.335Z,62.90
2022-09-14T17:33:26.329Z,62.90
2022-09-14T17:38:34.284Z,63.00
2022-09-14T17:43:38.430Z,62.90
2022-09-14T17:48:42.830Z,62.90
2022-09-14T17:53:48.108Z,62.80
2022-09-14T17:58:59.587Z,62.90
2022-09-14T18:04:04.521Z,62.70
2022-09-14T18:09:11.165Z,62.80
2022-09-14T18:14:14.521Z,63.00
2022-09-14T18:19:17.842Z,63.00
2022-09-14T18:24:22.724Z,63.00
2022-09-14T18:29:25.971Z,63.20
2022-09-14T18:34:29.114Z,63.30
2022-09-14T18:39:33.521Z,63.50
2022-09-14T18:44:36.469Z,63.50
2022-09-14T18:49:39.452Z,63.90
2022-09-14T18:54:43.893Z,64.20
2022-09-14T18:59:46.984Z,65.10
2022-09-14T19:04:50.038Z,64.80
2022-09-14T19:09:54.380Z,65.00
2022-09-14T19:14:57.351Z,65.60
2022-09-14T19:20:00.419Z,65.60
2022-09-14T19:25:05.215Z,65.80
2022-09-14T19:30:09.778Z,66.20
2022-09-14T19:35:12.738Z,65.90
2022-09-14T19:40:17.277Z,66.80
2022-09-14T19:45:20.319Z,67.30
2022-09-14T19:50:23.364Z,67.40
2022-09-14T19:55:27.934Z,67.60
2022-09-14T20:00:31.219Z,67.70
2022-09-14T20:05:34.162Z,67.40
2022-09-14T20:10:38.479Z,67.50
2022-09-14T20:15:41.474Z,67.50
2022-09-14T20:20:44.399Z,67.50
2022-09-14T20:25:48.729Z,67.00
2022-09-14T20:30:58.767Z,67.00
2022-09-14T20:36:02.851Z,66.90
2022-09-14T20:41:09.370Z,66.90
2022-09-14T20:46:15.143Z,66.90
2022-09-14T20:51:20.713Z,66.60
2022-09-14T20:56:27.730Z,66.50
2022-09-14T21:01:33.481Z,66.60
2022-09-14T21:06:37.771Z,66.40
2022-09-14T21:11:42.517Z,66.10
2022-09-14T21:16:47.034Z,66.00
2022-09-14T21:21:51.031Z,65.90
2022-09-14T21:26:57.150Z,65.80
2022-09-14T21:32:00.097Z,65.60
2022-09-14T21:37:03.171Z,66.20
2022-09-14T21:42:07.867Z,65.30
2022-09-14T21:47:10.819Z,65.10
2022-09-14T21:52:13.777Z,65.00
2022-09-14T21:57:19.162Z,65.00
2022-09-14T22:02:22.179Z,64.80
2022-09-14T22:07:25.387Z,64.70
2022-09-14T22:12:30.943Z,64.80
2022-09-14T22:17:33.936Z,64.70
2022-09-14T22:22:37.088Z,64.60
2022-09-14T22:27:41.987Z,64.50
2022-09-14T22:32:44.991Z,64.50
2022-09-14T22:37:49.621Z,64.50
2022-09-14T22:42:53.943Z,64.40
2022-09-14T22:47:56.904Z,64.40
2022-09-14T22:52:59.848Z,64.30
2022-09-14T22:58:04.320Z,64.30
2022-09-14T23:03:08.121Z,65.00
2022-09-14T23:08:11.858Z,64.20
2022-09-14T23:13:16.631Z,64.20
2022-09-14T23:18:19.595Z,64.20
2022-09-14T23:23:22.565Z,64.10
2022-09-14T23:28:27.200Z,64.10
2022-09-14T23:33:31.076Z,64.00
2022-09-14T23:38:35.986Z,64.00
2022-09-14T23:43:40.386Z,64.70
2022-09-14T23:48:43.628Z,63.90
2022-09-14T23:53:46.672Z,63.90
2022-09-14T23:58:51.143Z,63.90
